createdAt,value
2019-04-10T00:00:52.994Z,101051.39
2019-04-10T00:03:32.396Z,101050.61
2019-04-10T00:05:56.335Z,101051.32
2019-04-10T00:08:26.984Z,101057.16
2019-04-10T00:10:58.534Z,101050.72
2019-04-10T00:13:29.263Z,101046.02
2019-04-10T00:15:59.198Z,101054.87
2019-04-10T00:18:29.794Z,101058.05
2019-04-10T00:21:00.871Z,101059.22
2019-04-10T00:23:31.173Z,101057.92
2019-04-10T00:26:01.506Z,101051.48
2019-04-10T00:28:30.327Z,101052.66
2019-04-10T00:30:59.725Z,101055.11
2019-04-10T00:33:28.898Z,101057.50
2019-04-10T00:35:57.509Z,101053.93
2019-04-10T00:38:27.212Z,101061.23
2019-04-10T00:40:57.513Z,101057.97
2019-04-10T00:43:27.464Z,101057.63
2019-04-10T00:45:57.888Z,101056.33
2019-04-10T00:48:28.018Z,101054.22
2019-04-10T00:50:57.802Z,101058.38
2019-04-10T00:53:27.476Z,101059.41
2019-04-10T00:55:57.164Z,101061.27
2019-04-10T00:58:27.946Z,101057.97
2019-04-10T01:00:59.187Z,101058.38
2019-04-10T01:03:46.687Z,101059.18
2019-04-10T01:06:16.434Z,101054.79
2019-04-10T01:08:46.107Z,101060.31
2019-04-10T01:11:17.019Z,101061.77
2019-04-10T01:13:48.096Z,101060.47
2019-04-10T01:16:17.959Z,101059.34
2019-04-10T01:18:48.151Z,101055.38
2019-04-10T01:21:18.126Z,101057.22
2019-04-10T01:23:48.945Z,101059.87
2019-04-10T01:26:19.193Z,101060.37
2019-04-10T01:28:49.180Z,101061.39
2019-04-10T01:31:21.402Z,101063.47
2019-04-10T01:33:52.702Z,101063.03
2019-04-10T01:36:22.807Z,101065.71
2019-04-10T01:38:53.722Z,101065.91
2019-04-10T01:41:23.814Z,101067.70
2019-04-10T01:43:53.683Z,101069.09
2019-04-10T01:46:24.378Z,101069.59
2019-04-10T01:48:55.476Z,101072.02
2019-04-10T01:51:25.626Z,101069.19
2019-04-10T01:53:56.260Z,101080.63
2019-04-10T01:56:31.631Z,101073.47
2019-04-10T01:58:57.518Z,101070.94
2019-04-10T02:01:32.557Z,101071.45
2019-04-10T02:04:02.808Z,101072.07
2019-04-10T02:06:33.667Z,101070.80
2019-04-10T02:09:04.596Z,101068.11
2019-04-10T02:11:34.525Z,101067.93
2019-04-10T02:14:05.710Z,101066.82
2019-04-10T02:16:35.501Z,101059.22
2019-04-10T02:19:06.013Z,101067.53
2019-04-10T02:21:36.028Z,101070.27
2019-04-10T02:24:07.038Z,101072.55
2019-04-10T02:26:38.068Z,101072.34
2019-04-10T02:29:07.885Z,101071.12
2019-04-10T02:31:39.262Z,101069.47
2019-04-10T02:34:09.690Z,101075.28
2019-04-10T02:36:40.343Z,101074.44
2019-04-10T02:39:22.634Z,101077.58
2019-04-10T02:41:42.503Z,101078.02
2019-04-10T02:44:14.067Z,101078.87
2019-04-10T02:46:45.115Z,101082.06
2019-04-10T02:49:16.383Z,101083.86
2019-04-10T02:59:15.534Z,101090.42
2019-04-10T03:01:47.448Z,101084.09
2019-04-10T03:04:18.349Z,101086.82
2019-04-10T03:06:48.235Z,101075.20
2019-04-10T03:09:32.211Z,101075.99
2019-04-10T03:11:49.903Z,101083.36
2019-04-10T03:14:21.122Z,101087.31
2019-04-10T03:16:52.078Z,101081.36
2019-04-10T03:19:21.836Z,101086.82
2019-04-10T03:21:51.504Z,101091.36
2019-04-10T03:24:21.337Z,101087.51
2019-04-10T03:26:52.143Z,101085.91
2019-04-10T03:29:22.313Z,101092.54
2019-04-10T03:31:54.721Z,101089.73
2019-04-10T03:34:28.991Z,101085.00
2019-04-10T03:36:58.491Z,101090.09
2019-04-10T03:39:28.480Z,101083.71
2019-04-10T03:41:58.792Z,101090.97
2019-04-10T03:44:28.562Z,101095.52
2019-04-10T03:46:58.743Z,101093.90
2019-04-10T03:49:29.661Z,101088.69
2019-04-10T03:52:00.996Z,101090.36
2019-04-10T03:54:32.475Z,101093.66
2019-04-10T03:57:02.441Z,101102.20
2019-04-10T03:59:32.576Z,101095.75
2019-04-10T04:02:01.538Z,101104.42
2019-04-10T04:04:31.353Z,101093.79
2019-04-10T04:07:01.022Z,101100.54
2019-04-10T04:09:31.376Z,101095.14
2019-04-10T04:12:02.356Z,101105.95
2019-04-10T04:14:32.627Z,101103.55
2019-04-10T04:17:02.656Z,101107.48
2019-04-10T04:19:32.536Z,101108.83
2019-04-10T04:22:02.575Z,101112.38
2019-04-10T04:24:32.265Z,101108.37
2019-04-10T04:27:02.753Z,101113.78
2019-04-10T04:29:32.559Z,101112.30
2019-04-10T04:32:02.308Z,101119.02
2019-04-10T04:34:32.321Z,101116.50
2019-04-10T04:37:02.464Z,101122.24
2019-04-10T04:39:33.030Z,101117.73
2019-04-10T04:42:03.057Z,101126.38
2019-04-10T04:44:33.337Z,101131.55
2019-04-10T04:47:03.432Z,101133.74
2019-04-10T04:49:33.664Z,101130.03
2019-04-10T04:52:03.368Z,101136.59
2019-04-10T04:54:32.928Z,101142.39
2019-04-10T04:57:01.294Z,101145.87
2019-04-10T04:59:29.730Z,101145.61
2019-04-10T05:01:58.217Z,101151.61
2019-04-10T05:04:27.027Z,101147.80
2019-04-10T05:06:58.174Z,101158.73
2019-04-10T05:09:34.351Z,101157.99
2019-04-10T05:12:00.613Z,101160.57
2019-04-10T05:14:31.467Z,101165.29
2019-04-10T05:17:01.191Z,101162.28
2019-04-10T05:19:33.966Z,101169.53
2019-04-10T05:22:03.897Z,101174.73
2019-04-10T05:24:34.266Z,101173.94
2019-04-10T05:27:04.233Z,101175.64
2019-04-10T05:29:35.106Z,101184.66
2019-04-10T05:32:05.390Z,101187.19
2019-04-10T05:34:36.138Z,101192.30
2019-04-10T05:37:07.128Z,101193.59
2019-04-10T05:39:43.383Z,101198.20
2019-04-10T05:42:06.932Z,101211.00
2019-04-10T05:44:36.066Z,101213.95
2019-04-10T05:47:05.456Z,101220.44
2019-04-10T05:49:37.072Z,101214.86
2019-04-10T05:52:08.224Z,101215.72
2019-04-10T05:54:39.466Z,101221.69
2019-04-10T05:57:10.390Z,101221.53
2019-04-10T05:59:40.468Z,101219.44
2019-04-10T06:02:10.816Z,101229.79
2019-04-10T06:04:41.221Z,101227.21
2019-04-10T06:07:10.709Z,101228.41
2019-04-10T06:09:52.743Z,101225.45
2019-04-10T06:12:12.198Z,101223.91
2019-04-10T06:14:42.359Z,101224.61
2019-04-10T06:17:12.391Z,101225.28
2019-04-10T06:19:42.675Z,101225.66
2019-04-10T06:22:12.857Z,101218.67
2019-04-10T06:24:42.685Z,101223.61
2019-04-10T06:27:12.370Z,101224.63
2019-04-10T06:32:11.526Z,101223.34
2019-04-10T06:34:42.567Z,101230.10
2019-04-10T06:37:13.534Z,101226.98
2019-04-10T06:39:44.528Z,101224.98
2019-04-10T06:42:14.589Z,101232.49
2019-04-10T06:44:44.548Z,101230.48
2019-04-10T06:47:14.435Z,101229.95
2019-04-10T06:49:44.134Z,101232.45
2019-04-10T06:52:14.477Z,101227.45
2019-04-10T06:54:46.806Z,101229.21
2019-04-10T06:57:16.899Z,101231.94
2019-04-10T06:59:46.843Z,101237.84
2019-04-10T07:02:24.561Z,101239.26
2019-04-10T07:04:53.272Z,101231.95
2019-04-10T07:07:23.776Z,101228.48
2019-04-10T07:09:55.163Z,101229.63
2019-04-10T07:12:30.974Z,101227.19
2019-04-10T07:14:58.339Z,101226.61
2019-04-10T07:17:29.435Z,101235.90
2019-04-10T07:19:59.752Z,101230.51
2019-04-10T07:22:29.763Z,101229.53
2019-04-10T07:24:58.564Z,101225.71
2019-04-10T07:27:27.939Z,101228.62
2019-04-10T07:29:59.427Z,101230.41
2019-04-10T07:32:28.215Z,101236.50
2019-04-10T07:35:01.079Z,101222.70
2019-04-10T07:37:29.680Z,101231.90
2019-04-10T07:40:02.687Z,101227.08
2019-04-10T07:42:39.752Z,101235.95
2019-04-10T07:45:11.684Z,101234.23
2019-04-10T07:47:42.022Z,101232.66
2019-04-10T07:50:12.322Z,101236.21
2019-04-10T07:52:41.965Z,101230.95
2019-04-10T07:55:12.837Z,101232.84
2019-04-10T07:57:47.131Z,101242.17
2019-04-10T08:00:16.152Z,101234.99
2019-04-10T08:02:46.927Z,101241.33
2019-04-10T08:05:17.041Z,101238.08
2019-04-10T08:07:47.265Z,101243.31
2019-04-10T08:10:17.981Z,101242.09
2019-04-10T08:12:52.311Z,101244.72
2019-04-10T08:15:19.512Z,101248.81
2019-04-10T08:17:51.272Z,101238.76
2019-04-10T08:20:21.957Z,101250.54
2019-04-10T08:22:53.292Z,101254.97
2019-04-10T08:25:24.872Z,101251.48
2019-04-10T08:27:54.595Z,101256.14
2019-04-10T08:30:25.828Z,101256.31
2019-04-10T08:33:00.843Z,101257.56
2019-04-10T08:35:27.258Z,101257.05
2019-04-10T08:37:57.290Z,101252.77
2019-04-10T08:40:27.858Z,101258.30
2019-04-10T08:42:57.851Z,101258.68
2019-04-10T08:45:37.436Z,101260.02
2019-04-10T08:47:59.635Z,101259.19
2019-04-10T08:50:30.204Z,101251.62
2019-04-10T08:53:00.250Z,101260.50
2019-04-10T08:55:30.369Z,101255.38
2019-04-10T08:57:58.921Z,101253.40
2019-04-10T09:00:28.819Z,101253.40
2019-04-10T09:02:58.172Z,101253.56
2019-04-10T09:05:26.556Z,101260.02
2019-04-10T09:07:54.856Z,101260.13
2019-04-10T09:10:23.164Z,101253.98
2019-04-10T09:12:54.349Z,101260.09
2019-04-10T09:15:21.568Z,101262.89
2019-04-10T09:17:49.867Z,101266.46
2019-04-10T09:20:19.675Z,101262.69
2019-04-10T09:23:13.353Z,101259.44
2019-04-10T09:25:22.904Z,101263.48
2019-04-10T09:27:53.909Z,101272.92
2019-04-10T09:30:24.940Z,101264.41
2019-04-10T09:32:54.981Z,101263.26
2019-04-10T09:35:26.651Z,101262.73
2019-04-10T09:37:56.684Z,101263.37
2019-04-10T09:40:26.381Z,101264.26
2019-04-10T09:42:56.424Z,101262.81
2019-04-10T09:45:26.718Z,101254.44
2019-04-10T09:47:56.503Z,101253.73
2019-04-10T09:50:27.586Z,101256.95
2019-04-10T09:52:57.342Z,101257.80
2019-04-10T09:55:27.710Z,101259.98
2019-04-10T09:57:58.053Z,101260.73
2019-04-10T10:00:28.483Z,101264.14
2019-04-10T10:02:59.326Z,101260.66
2019-04-10T10:05:29.188Z,101258.00
2019-04-10T10:08:00.199Z,101258.53
2019-04-10T10:10:31.403Z,101258.41
2019-04-10T10:13:03.289Z,101260.17
2019-04-10T10:15:33.475Z,101263.36
2019-04-10T10:18:03.454Z,101254.02
2019-04-10T10:20:32.196Z,101260.31
2019-04-10T10:23:01.302Z,101266.00
2019-04-10T10:25:32.819Z,101254.45
2019-04-10T10:28:02.959Z,101261.74
2019-04-10T10:30:33.694Z,101262.27
2019-04-10T10:33:03.774Z,101257.87
2019-04-10T10:35:33.560Z,101255.38
2019-04-10T10:38:03.975Z,101261.16
2019-04-10T10:40:35.905Z,101260.75
2019-04-10T10:43:05.940Z,101258.65
2019-04-10T10:45:36.657Z,101256.30
2019-04-10T10:48:08.690Z,101261.91
2019-04-10T10:50:39.405Z,101254.23
2019-04-10T10:53:10.245Z,101263.00
2019-04-10T10:55:40.761Z,101256.20
2019-04-10T10:58:11.368Z,101260.75
2019-04-10T11:00:41.224Z,101255.13
2019-04-10T11:03:10.923Z,101256.92
2019-04-10T11:05:40.693Z,101260.15
2019-04-10T11:08:11.137Z,101256.20
2019-04-10T11:10:41.357Z,101255.25
2019-04-10T11:13:12.751Z,101257.28
2019-04-10T11:15:45.528Z,101257.89
2019-04-10T11:18:14.224Z,101261.38
2019-04-10T11:20:43.989Z,101254.89
2019-04-10T11:23:13.853Z,101274.28
2019-04-10T11:25:43.875Z,101279.19
2019-04-10T11:28:12.583Z,101273.08
2019-04-10T11:30:42.579Z,101274.27
2019-04-10T11:33:12.439Z,101276.32
2019-04-10T11:35:41.407Z,101264.47
2019-04-10T11:38:10.949Z,101270.70
2019-04-10T11:40:39.246Z,101276.20
2019-04-10T11:43:07.814Z,101277.02
2019-04-10T11:48:07.859Z,101276.44
2019-04-10T11:50:38.435Z,101275.73
2019-04-10T11:53:10.298Z,101275.73
2019-04-10T11:55:48.876Z,101283.02
2019-04-10T11:58:14.623Z,101289.24
2019-04-10T12:00:50.342Z,101278.72
2019-04-10T12:03:18.126Z,101277.63
2019-04-10T12:05:49.149Z,101287.22
2019-04-10T12:08:45.246Z,101277.63
2019-04-10T12:11:10.709Z,101283.03
2019-04-10T12:13:22.200Z,101282.53
2019-04-10T12:15:52.611Z,101281.67
2019-04-10T12:18:22.675Z,101278.45
2019-04-10T12:20:53.651Z,101291.61
2019-04-10T12:23:23.759Z,101283.45
2019-04-10T12:25:54.177Z,101284.08
2019-04-10T12:28:24.097Z,101277.11
2019-04-10T12:30:53.997Z,101280.83
2019-04-10T12:33:25.444Z,101276.66
2019-04-10T12:35:56.151Z,101291.27
2019-04-10T12:38:26.109Z,101288.25
2019-04-10T12:40:57.243Z,101287.06
2019-04-10T12:43:27.360Z,101290.53
2019-04-10T12:45:57.391Z,101283.45
2019-04-10T12:48:28.441Z,101283.46
2019-04-10T12:50:58.376Z,101283.92
2019-04-10T12:53:28.138Z,101287.90
2019-04-10T12:55:58.125Z,101279.02
2019-04-10T12:58:28.889Z,101288.27
2019-04-10T13:00:58.899Z,101290.81
2019-04-10T13:03:29.436Z,101292.09
2019-04-10T13:05:59.792Z,101286.59
2019-04-10T13:08:48.287Z,101282.73
2019-04-10T13:11:02.459Z,101284.31
2019-04-10T13:13:32.267Z,101285.78
2019-04-10T13:16:02.018Z,101283.86
2019-04-10T13:18:32.333Z,101281.92
2019-04-10T13:21:02.426Z,101288.63
2019-04-10T13:23:33.072Z,101284.46
2019-04-10T13:26:05.879Z,101286.23
2019-04-10T13:28:34.304Z,101286.73
2019-04-10T13:31:05.400Z,101286.86
2019-04-10T13:33:36.417Z,101286.26
2019-04-10T13:36:07.198Z,101288.88
2019-04-10T13:38:38.361Z,101286.50
2019-04-10T13:41:08.563Z,101285.89
2019-04-10T13:43:38.254Z,101283.98
2019-04-10T13:46:08.766Z,101286.00
2019-04-10T13:48:39.729Z,101291.98
2019-04-10T13:51:10.869Z,101284.53
2019-04-10T13:53:39.943Z,101287.84
2019-04-10T13:56:08.702Z,101282.95
2019-04-10T13:58:37.165Z,101288.25
2019-04-10T14:01:07.224Z,101284.67
2019-04-10T14:03:36.527Z,101283.37
2019-04-10T14:06:05.351Z,101282.78
2019-04-10T14:08:56.189Z,101282.70
2019-04-10T14:11:04.712Z,101285.16
2019-04-10T14:13:33.269Z,101276.32
2019-04-10T14:16:04.338Z,101284.34
2019-04-10T14:18:34.892Z,101288.38
2019-04-10T14:21:11.393Z,101290.55
2019-04-10T14:23:37.726Z,101285.63
2019-04-10T14:26:22.455Z,101289.36
2019-04-10T14:28:53.431Z,101282.73
2019-04-10T14:31:32.356Z,101288.09
2019-04-10T14:34:04.862Z,101281.39
2019-04-10T14:36:35.922Z,101283.64
2019-04-10T14:39:17.679Z,101290.66
2019-04-10T14:41:46.396Z,101292.78
2019-04-10T14:44:16.215Z,101286.45
2019-04-10T14:46:46.446Z,101291.06
2019-04-10T14:49:16.777Z,101284.36
2019-04-10T14:51:48.477Z,101290.87
2019-04-10T14:54:19.619Z,101294.30
2019-04-10T14:56:50.419Z,101299.33
2019-04-10T14:59:20.435Z,101303.36
2019-04-10T15:01:51.205Z,101296.77
2019-04-10T15:04:21.387Z,101303.07
2019-04-10T15:06:51.415Z,101298.44
2019-04-10T15:09:25.846Z,101302.38
2019-04-10T15:11:55.498Z,101309.04
2019-04-10T15:14:25.874Z,101312.74
2019-04-10T15:17:02.868Z,101302.81
2019-04-10T15:19:26.815Z,101300.69
2019-04-10T15:21:55.779Z,101303.05
2019-04-10T15:24:24.071Z,101309.23
2019-04-10T15:26:52.870Z,101312.30
2019-04-10T15:29:24.716Z,101310.28
2019-04-10T15:31:55.893Z,101309.34
2019-04-10T15:34:26.149Z,101313.80
2019-04-10T15:36:56.433Z,101323.39
2019-04-10T15:39:34.012Z,101320.19
2019-04-10T15:41:59.512Z,101315.41
2019-04-10T15:44:30.109Z,101315.41
2019-04-10T15:47:10.841Z,101318.41
2019-04-10T15:49:32.433Z,101322.30
2019-04-10T15:52:03.690Z,101324.42
2019-04-10T15:54:34.747Z,101324.81
2019-04-10T15:57:16.424Z,101321.80
2019-04-10T15:59:50.140Z,101323.17
2019-04-10T16:02:29.887Z,101328.00
2019-04-10T16:05:01.347Z,101327.48
2019-04-10T16:07:32.352Z,101325.54
2019-04-10T16:10:14.896Z,101329.09
2019-04-10T16:12:46.015Z,101329.70
2019-04-10T16:15:17.269Z,101323.45
2019-04-10T16:18:01.715Z,101334.42
2019-04-10T16:20:33.662Z,101323.77
2019-04-10T16:23:18.391Z,101332.59
2019-04-10T16:25:52.693Z,101333.15
2019-04-10T16:28:23.520Z,101327.88
2019-04-10T16:30:53.726Z,101333.33
2019-04-10T16:33:25.402Z,101339.42
2019-04-10T16:36:01.691Z,101336.05
2019-04-10T16:38:31.541Z,101337.86
2019-04-10T16:41:02.687Z,101337.88
2019-04-10T16:43:32.809Z,101338.44
2019-04-10T16:46:04.828Z,101335.28
2019-04-10T16:48:35.843Z,101337.91
2019-04-10T16:51:08.009Z,101346.77
2019-04-10T16:53:38.290Z,101346.30
2019-04-10T16:56:09.574Z,101348.17
2019-04-10T16:58:41.169Z,101349.38
2019-04-10T17:01:12.621Z,101345.05
2019-04-10T17:03:44.208Z,101353.73
2019-04-10T17:06:28.306Z,101354.95
2019-04-10T17:08:58.561Z,101356.48
2019-04-10T17:11:29.139Z,101352.20
2019-04-10T17:14:00.593Z,101360.22
2019-04-10T17:16:31.735Z,101351.26
2019-04-10T17:19:01.880Z,101360.66
2019-04-10T17:21:34.159Z,101362.48
2019-04-10T17:24:03.708Z,101362.17
2019-04-10T17:26:33.496Z,101369.81
2019-04-10T17:29:03.016Z,101371.48
2019-04-10T17:31:32.890Z,101364.75
2019-04-10T17:34:04.344Z,101374.22
2019-04-10T17:36:34.823Z,101377.13
2019-04-10T17:39:09.124Z,101372.23
2019-04-10T17:41:39.639Z,101377.80
2019-04-10T17:44:09.671Z,101381.72
2019-04-10T17:46:41.622Z,101381.72
2019-04-10T17:49:12.118Z,101381.78
2019-04-10T17:51:42.312Z,101396.98
2019-04-10T17:54:12.200Z,101398.93
2019-04-10T17:56:42.735Z,101392.57
2019-04-10T17:59:14.102Z,101401.98
2019-04-10T18:01:45.192Z,101404.97
2019-04-10T18:04:16.046Z,101405.23
2019-04-10T18:06:47.080Z,101405.78
2019-04-10T18:09:18.160Z,101415.23
2019-04-10T18:11:49.699Z,101413.84
2019-04-10T18:14:19.511Z,101413.62
2019-04-10T18:16:49.766Z,101417.84
2019-04-10T18:19:21.203Z,101419.33
2019-04-10T18:21:51.160Z,101420.86
2019-04-10T18:24:22.096Z,101427.77
2019-04-10T18:26:54.305Z,101433.30
2019-04-10T18:29:25.370Z,101431.36
2019-04-10T18:31:57.363Z,101433.91
2019-04-10T18:34:27.002Z,101433.73
2019-04-10T18:36:57.333Z,101440.49
2019-04-10T18:39:27.347Z,101447.36
2019-04-10T18:41:59.474Z,101450.05
2019-04-10T18:44:29.284Z,101448.67
2019-04-10T18:46:58.880Z,101453.70
2019-04-10T18:49:29.510Z,101456.92
2019-04-10T18:52:00.514Z,101462.05
2019-04-10T18:54:31.813Z,101469.52
2019-04-10T18:57:02.005Z,101467.32
2019-04-10T19:00:03.345Z,101468.20
2019-04-10T19:02:41.302Z,101484.20
2019-04-10T19:05:17.830Z,101485.44
2019-04-10T19:07:48.212Z,101489.12
2019-04-10T19:10:18.224Z,101498.52
2019-04-10T19:12:48.776Z,101501.62
2019-04-10T19:15:18.654Z,101507.73
2019-04-10T19:17:48.824Z,101504.25
2019-04-10T19:20:18.861Z,101513.48
2019-04-10T19:22:49.238Z,101518.09
2019-04-10T19:25:20.975Z,101515.05
2019-04-10T19:27:51.151Z,101514.00
2019-04-10T19:30:33.364Z,101512.89
2019-04-10T19:33:04.415Z,101511.47
2019-04-10T19:35:35.099Z,101508.53
2019-04-10T19:38:05.235Z,101519.66
2019-04-10T19:40:36.953Z,101520.02
2019-04-10T19:43:06.650Z,101517.59
2019-04-10T19:45:36.603Z,101524.61
2019-04-10T19:48:06.795Z,101524.93
2019-04-10T19:50:37.294Z,101529.34
2019-04-10T19:53:09.119Z,101533.38
2019-04-10T19:55:40.122Z,101535.73
2019-04-10T19:58:10.881Z,101542.27
2019-04-10T20:00:41.369Z,101541.10
2019-04-10T20:03:13.228Z,101536.97
2019-04-10T20:05:44.411Z,101543.77
2019-04-10T20:08:15.397Z,101547.00
2019-04-10T20:10:46.252Z,101550.42
2019-04-10T20:13:16.593Z,101550.11
2019-04-10T20:15:46.816Z,101546.66
2019-04-10T20:18:16.833Z,101549.96
2019-04-10T20:20:47.762Z,101553.87
2019-04-10T20:23:17.480Z,101554.98
2019-04-10T20:25:48.511Z,101557.52
2019-04-10T20:28:20.544Z,101561.28
2019-04-10T20:30:54.540Z,101561.84
2019-04-10T20:33:23.147Z,101568.67
2019-04-10T20:35:53.078Z,101568.53
2019-04-10T20:38:23.186Z,101571.75
2019-04-10T20:40:54.028Z,101570.98
2019-04-10T20:43:23.950Z,101569.52
2019-04-10T20:45:53.904Z,101579.16
2019-04-10T20:48:24.511Z,101583.78
2019-04-10T20:50:57.236Z,101584.69
2019-04-10T20:53:26.984Z,101583.48
2019-04-10T20:55:57.810Z,101588.48
2019-04-10T20:58:27.732Z,101590.66
2019-04-10T21:00:58.697Z,101589.48
2019-04-10T21:03:28.790Z,101595.72
2019-04-10T21:05:58.445Z,101596.16
2019-04-10T21:08:29.745Z,101593.65
2019-04-10T21:10:59.695Z,101595.06
2019-04-10T21:13:28.114Z,101602.09
2019-04-10T21:15:56.729Z,101604.83
2019-04-10T21:18:25.402Z,101606.70
2019-04-10T21:20:53.772Z,101610.64
2019-04-10T21:23:22.183Z,101612.87
2019-04-10T21:25:51.819Z,101612.98
2019-04-10T21:28:20.425Z,101609.66
2019-04-10T21:31:20.765Z,101617.13
2019-04-10T21:34:07.643Z,101612.00
2019-04-10T21:36:39.247Z,101619.91
2019-04-10T21:39:07.645Z,101619.78
2019-04-10T21:41:37.507Z,101621.23
2019-04-10T21:44:09.636Z,101622.97
2019-04-10T21:46:38.920Z,101624.31
2019-04-10T21:49:08.531Z,101628.33
2019-04-10T21:51:38.337Z,101625.42
2019-04-10T21:54:08.232Z,101625.48
2019-04-10T21:56:37.908Z,101628.06
2019-04-10T21:59:07.565Z,101631.27
2019-04-10T22:01:38.110Z,101633.55
2019-04-10T22:04:08.238Z,101631.81
2019-04-10T22:06:59.983Z,101631.81
2019-04-10T22:09:48.868Z,101638.52
2019-04-10T22:12:31.594Z,101632.91
2019-04-10T22:15:00.315Z,101638.62
2019-04-10T22:17:32.105Z,101640.04
2019-04-10T22:20:01.870Z,101630.67
2019-04-10T22:22:32.961Z,101632.45
2019-04-10T22:25:03.377Z,101634.33
2019-04-10T22:27:33.805Z,101636.91
2019-04-10T22:30:05.291Z,101639.63
2019-04-10T22:32:35.389Z,101636.61
2019-04-10T22:35:06.702Z,101637.25
2019-04-10T22:37:37.709Z,101635.14
2019-04-10T22:40:08.595Z,101633.85
2019-04-10T22:42:43.038Z,101634.83
2019-04-10T22:45:25.747Z,101634.47
2019-04-10T22:47:56.332Z,101636.63
2019-04-10T22:50:27.399Z,101636.69
2019-04-10T22:52:57.196Z,101643.74
2019-04-10T22:55:28.137Z,101644.12
2019-04-10T22:57:57.853Z,101642.56
2019-04-10T23:00:31.046Z,101646.16
2019-04-10T23:03:03.103Z,101645.35
2019-04-10T23:05:34.487Z,101648.14
2019-04-10T23:08:04.612Z,101645.98
2019-04-10T23:10:35.253Z,101643.84
2019-04-10T23:13:07.214Z,101647.77
2019-04-10T23:15:37.751Z,101643.93
2019-04-10T23:18:08.194Z,101650.45
2019-04-10T23:20:37.884Z,101652.36
2019-04-10T23:23:08.532Z,101649.84
2019-04-10T23:25:38.398Z,101651.61
2019-04-10T23:28:09.407Z,101662.91
2019-04-10T23:30:39.587Z,101657.41
2019-04-10T23:33:10.052Z,101657.41
2019-04-10T23:35:41.263Z,101663.00
2019-04-10T23:38:11.180Z,101665.64
2019-04-10T23:40:41.165Z,101659.74
2019-04-10T23:43:14.099Z,101663.63
2019-04-10T23:45:43.984Z,101666.82
2019-04-10T23:48:14.922Z,101670.27
2019-04-10T23:50:44.623Z,101671.91
2019-04-10T23:53:14.283Z,101674.05
2019-04-10T23:55:46.199Z,101673.66
2019-04-10T23:58:16.135Z,101675.39
